Time;durP1;ratioP1;P1;durP2;ratioP2;P2;SDS_P1;SDS_P2;PMS_P1;PMS_P2;Temp;Humidity;BMP_temperature;BMP_pressure;BME280_temperature;BME280_humidity;BME280_pressure;Samples;Min_cycle;Max_cycle;Signal;HPM_P1;HPM_P2
2024/04/05 00:00:21;;;;;;;3.33;3.00;;;13.20;99.00;;;;;;5110621;27;20636;-80
2024/04/05 00:02:47;;;;;;;5.33;3.13;;;13.20;99.00;;;;;;5111658;27;20646;-80
2024/04/05 00:05:13;;;;;;;3.97;2.93;;;13.20;99.00;;;;;;5111229;27;20620;-80
2024/04/05 00:07:41;;;;;;;5.07;3.60;;;13.20;99.00;;;;;;5109283;27;20640;-79
2024/04/05 00:10:07;;;;;;;4.00;2.90;;;13.10;99.00;;;;;;5114386;27;20406;-80
2024/04/05 00:12:36;;;;;;;6.57;3.67;;;13.20;99.00;;;;;;5113953;27;20661;-80
2024/04/05 00:15:03;;;;;;;3.30;2.80;;;13.20;99.00;;;;;;5108740;27;20617;-80
2024/04/05 00:17:30;;;;;;;3.87;3.33;;;13.10;99.00;;;;;;5119076;27;20628;-79
2024/04/05 00:19:56;;;;;;;3.53;2.90;;;13.10;99.00;;;;;;5119484;27;20614;-80
2024/04/05 00:22:23;;;;;;;6.40;2.87;;;13.10;99.00;;;;;;5120047;27;20981;-81
2024/04/05 00:24:49;;;;;;;3.53;3.00;;;13.10;99.00;;;;;;5117568;27;20219;-80
2024/04/05 00:27:16;;;;;;;3.47;3.27;;;13.20;99.00;;;;;;5112971;27;20635;-80
2024/04/05 00:29:43;;;;;;;3.57;3.27;;;13.20;99.00;;;;;;5114275;27;20212;-80
2024/04/05 00:32:09;;;;;;;4.30;2.90;;;13.20;99.00;;;;;;5110414;27;21264;-80
2024/04/05 00:34:35;;;;;;;3.90;3.00;;;13.20;99.00;;;;;;5109228;27;20622;-81
2024/04/05 00:37:02;;;;;;;3.83;3.20;;;13.20;99.00;;;;;;5110355;27;20643;-80
2024/04/05 00:39:28;;;;;;;4.00;3.50;;;13.20;99.00;;;;;;5111018;27;20211;-80
2024/04/05 00:41:54;;;;;;;4.63;3.20;;;13.20;99.00;;;;;;5110092;27;20997;-80
2024/04/05 00:44:21;;;;;;;3.77;2.80;;;13.20;99.00;;;;;;5108848;27;20198;-80
2024/04/05 00:46:50;;;;;;;2.80;2.60;;;13.20;99.00;;;;;;5110501;27;21182;-80
2024/04/05 00:49:17;;;;;;;3.37;3.10;;;13.20;99.00;;;;;;5113782;27;21231;-81
2024/04/05 00:51:44;;;;;;;4.20;2.80;;;13.30;99.00;;;;;;5112088;27;21266;-80
2024/04/05 00:54:10;;;;;;;5.13;2.90;;;13.20;99.00;;;;;;5114783;27;21270;-80
2024/04/05 00:56:37;;;;;;;3.13;2.93;;;13.20;99.00;;;;;;5110737;27;20620;-80
2024/04/05 00:59:03;;;;;;;4.33;2.70;;;13.20;99.00;;;;;;5112311;27;20656;-79
2024/04/05 01:01:31;;;;;;;3.40;3.10;;;13.10;99.00;;;;;;5117001;27;20633;-80
2024/04/05 01:03:58;;;;;;;7.43;3.17;;;13.20;99.00;;;;;;5116881;27;20206;-80
2024/04/05 01:06:25;;;;;;;4.87;3.50;;;13.20;99.00;;;;;;5118199;27;20727;-80
2024/04/05 01:08:51;;;;;;;4.93;3.53;;;13.10;99.00;;;;;;5119373;27;20657;-80
2024/04/05 01:11:17;;;;;;;3.80;3.40;;;13.10;99.00;;;;;;5116530;27;21205;-79
2024/04/05 01:13:43;;;;;;;5.53;3.20;;;13.10;99.00;;;;;;5103445;27;20687;-79
2024/04/05 01:16:10;;;;;;;4.20;3.90;;;13.10;99.00;;;;;;5109772;27;20612;-80
2024/04/05 01:18:37;;;;;;;6.10;3.30;;;13.10;99.00;;;;;;5112324;27;20209;-79
2024/04/05 01:21:05;;;;;;;3.73;3.40;;;13.10;99.00;;;;;;5120703;27;20632;-80
2024/04/05 01:23:33;;;;;;;3.90;3.00;;;13.20;99.00;;;;;;5107415;27;20655;-80
2024/04/05 01:26:01;;;;;;;3.53;3.00;;;13.10;99.00;;;;;;5115430;27;21493;-81
2024/04/05 01:28:27;;;;;;;4.27;3.87;;;13.10;99.00;;;;;;5113463;27;20622;-80
2024/04/05 01:30:54;;;;;;;5.17;3.73;;;13.10;99.00;;;;;;5112465;27;21674;-80
2024/04/05 01:33:20;;;;;;;5.23;3.70;;;13.10;99.00;;;;;;5111286;27;20697;-80
2024/04/05 01:35:47;;;;;;;3.87;3.10;;;13.10;99.00;;;;;;5113644;27;20629;-81
2024/04/05 01:38:12;;;;;;;5.00;4.10;;;13.00;99.00;;;;;;5114473;27;20617;-81
2024/04/05 01:40:39;;;;;;;4.50;3.50;;;13.00;99.00;;;;;;5119862;27;20615;-81
2024/04/05 01:43:06;;;;;;;5.73;3.27;;;12.90;99.00;;;;;;5119851;27;20207;-81
2024/04/05 01:45:33;;;;;;;4.10;3.70;;;12.90;99.00;;;;;;5112561;27;21502;-80
2024/04/05 01:47:59;;;;;;;3.80;3.43;;;12.90;99.00;;;;;;5114327;27;20669;-80
2024/04/05 01:50:26;;;;;;;4.07;3.67;;;12.90;99.00;;;;;;5112239;27;20754;-81
2024/04/05 01:52:51;;;;;;;4.57;3.80;;;12.90;99.00;;;;;;5112988;27;20313;-82
2024/04/05 01:55:18;;;;;;;4.17;3.20;;;13.00;99.00;;;;;;5119588;27;20713;-81
2024/04/05 01:57:44;;;;;;;3.50;3.20;;;13.00;99.00;;;;;;5125132;27;21736;-81
2024/04/05 02:00:13;;;;;;;5.20;2.90;;;13.00;99.00;;;;;;5118766;27;21234;-80
2024/04/05 02:02:39;;;;;;;3.97;3.00;;;13.00;99.00;;;;;;5122484;27;20201;-81
2024/04/05 02:05:06;;;;;;;9.27;3.60;;;13.00;99.00;;;;;;5119406;27;20628;-80
2024/04/05 02:07:32;;;;;;;4.10;3.10;;;13.00;99.00;;;;;;5119508;27;20628;-80
2024/04/05 02:09:58;;;;;;;5.43;3.10;;;13.00;99.00;;;;;;5121193;27;20622;-80
2024/04/05 02:12:28;;;;;;;5.93;2.80;;;13.00;99.00;;;;;;5119246;27;20206;-80
2024/04/05 02:14:55;;;;;;;4.50;2.70;;;13.00;99.00;;;;;;5116214;27;21304;-80
2024/04/05 02:17:22;;;;;;;3.33;2.30;;;13.10;99.00;;;;;;5106357;27;20624;-80
2024/04/05 02:19:50;;;;;;;3.37;2.93;;;13.00;99.00;;;;;;5112804;27;20723;-80
2024/04/05 02:22:16;;;;;;;3.23;2.70;;;13.00;99.00;;;;;;5113705;27;20641;-80
2024/04/05 02:24:43;;;;;;;3.90;3.60;;;13.00;99.00;;;;;;5114937;27;21227;-80
2024/04/05 02:27:09;;;;;;;3.63;2.87;;;13.00;99.00;;;;;;5117013;27;20642;-80
2024/04/05 02:29:36;;;;;;;3.20;2.87;;;13.10;99.00;;;;;;5124324;27;20619;-81
2024/04/05 02:32:03;;;;;;;3.90;2.50;;;13.10;99.00;;;;;;5119646;27;20204;-80
2024/04/05 02:34:31;;;;;;;3.10;2.10;;;13.10;99.00;;;;;;5110320;27;20758;-80
2024/04/05 02:36:56;;;;;;;4.40;2.40;;;13.10;99.00;;;;;;5121073;27;20628;-81
2024/04/05 02:39:23;;;;;;;3.47;1.90;;;13.10;99.00;;;;;;5119350;27;20622;-81
2024/04/05 02:41:49;;;;;;;2.67;2.27;;;13.10;99.00;;;;;;5121503;27;20209;-80
2024/04/05 02:44:16;;;;;;;2.77;2.43;;;13.00;99.00;;;;;;5111750;27;20650;-80
2024/04/05 02:46:42;;;;;;;2.33;2.10;;;13.00;99.00;;;;;;5112711;27;20199;-81
2024/04/05 02:49:08;;;;;;;3.30;2.07;;;13.00;99.00;;;;;;5113038;27;20625;-81
2024/04/05 02:51:36;;;;;;;2.47;2.20;;;13.00;99.00;;;;;;5118788;27;21253;-80
2024/04/05 02:54:03;;;;;;;4.13;2.30;;;13.00;99.00;;;;;;5115103;27;20699;-81
2024/04/05 02:56:29;;;;;;;3.87;2.40;;;13.00;99.00;;;;;;5108010;27;20628;-81
2024/04/05 02:58:57;;;;;;;3.33;2.37;;;13.00;99.00;;;;;;5111540;27;21258;-81
2024/04/05 03:01:23;;;;;;;3.50;2.83;;;13.00;99.00;;;;;;5113132;27;20698;-81
2024/04/05 03:03:50;;;;;;;3.00;2.53;;;13.00;99.00;;;;;;5117859;27;21058;-80
2024/04/05 03:06:16;;;;;;;3.10;2.43;;;13.00;99.00;;;;;;5118191;27;20681;-80
2024/04/05 03:08:44;;;;;;;4.40;2.70;;;13.00;99.00;;;;;;5120935;27;20642;-81
2024/04/05 03:11:10;;;;;;;4.73;2.70;;;13.00;99.00;;;;;;5118845;27;20637;-80
2024/04/05 03:13:37;;;;;;;3.80;2.40;;;13.00;99.00;;;;;;5120400;27;20659;-81
2024/04/05 03:16:03;;;;;;;2.53;2.27;;;12.90;99.00;;;;;;5115167;27;20205;-80
2024/04/05 03:18:31;;;;;;;2.50;2.30;;;12.90;99.00;;;;;;5110058;27;20618;-80
2024/04/05 03:20:57;;;;;;;2.20;1.93;;;13.00;99.00;;;;;;5119342;27;20710;-79
2024/04/05 03:23:24;;;;;;;4.30;2.30;;;13.00;99.00;;;;;;5123750;27;20660;-80
2024/04/05 03:25:51;;;;;;;3.67;2.10;;;13.00;99.00;;;;;;5112297;27;20204;-80
2024/04/05 03:28:18;;;;;;;2.70;2.00;;;13.00;99.00;;;;;;5120410;27;20616;-81
2024/04/05 03:30:43;;;;;;;3.70;1.60;;;13.00;99.00;;;;;;5114128;27;20636;-80
2024/04/05 03:33:10;;;;;;;2.77;1.23;;;13.10;99.00;;;;;;5120030;27;20673;-80
2024/04/05 03:35:37;;;;;;;5.70;1.87;;;13.10;99.00;;;;;;5118103;27;20316;-80
2024/04/05 03:38:04;;;;;;;3.00;2.00;;;13.20;99.00;;;;;;5117306;27;20659;-80
2024/04/05 03:40:30;;;;;;;4.53;2.03;;;13.20;99.00;;;;;;5114757;27;20632;-80
2024/04/05 03:42:58;;;;;;;4.30;2.00;;;13.20;99.00;;;;;;5111606;27;20630;-80
2024/04/05 03:45:24;;;;;;;3.07;2.00;;;13.20;99.00;;;;;;5114174;27;20715;-80
2024/04/05 03:47:51;;;;;;;7.30;2.13;;;13.20;99.00;;;;;;5110338;27;20731;-80
2024/04/05 03:50:17;;;;;;;3.40;1.77;;;13.30;99.00;;;;;;5117901;27;20215;-80
2024/04/05 03:52:44;;;;;;;3.77;1.90;;;13.20;99.00;;;;;;5114286;27;20622;-80
2024/04/05 03:55:09;;;;;;;4.00;1.40;;;13.20;99.00;;;;;;5113713;27;20258;-81
2024/04/05 03:57:37;;;;;;;4.43;1.60;;;13.10;99.00;;;;;;5119231;27;21226;-81
2024/04/05 04:00:06;;;;;;;3.83;2.07;;;13.10;99.00;;;;;;5123106;27;20203;-81
2024/04/05 04:02:32;;;;;;;2.90;1.87;;;13.10;99.00;;;;;;5111540;27;20626;-82
2024/04/05 04:04:58;;;;;;;3.30;2.00;;;13.00;99.00;;;;;;5109342;27;20616;-82
2024/04/05 04:07:25;;;;;;;3.60;1.73;;;13.00;99.00;;;;;;5115892;27;20983;-81
2024/04/05 04:09:51;;;;;;;3.10;1.97;;;13.00;99.00;;;;;;5117822;27;20245;-82
2024/04/05 04:12:18;;;;;;;3.60;1.60;;;12.90;99.00;;;;;;5110585;27;20627;-81
2024/04/05 04:14:44;;;;;;;2.30;2.10;;;12.90;99.00;;;;;;5109938;27;20302;-81
2024/04/05 04:17:12;;;;;;;4.07;2.07;;;12.90;99.00;;;;;;5117532;27;20652;-81
2024/04/05 04:19:38;;;;;;;3.07;1.53;;;12.90;99.00;;;;;;5111278;27;20234;-81
2024/04/05 04:22:05;;;;;;;5.30;2.37;;;12.90;99.00;;;;;;5119694;27;20632;-81
2024/04/05 04:24:32;;;;;;;1.03;0.90;;;12.90;99.00;;;;;;5118451;27;20223;-81
2024/04/05 04:26:58;;;;;;;2.50;1.60;;;12.70;99.00;;;;;;5117027;27;20633;-81
2024/04/05 04:29:25;;;;;;;4.30;1.57;;;12.70;99.00;;;;;;5122882;27;20764;-80
2024/04/05 04:31:50;;;;;;;3.30;1.60;;;12.80;99.00;;;;;;5117511;27;21549;-81
2024/04/05 04:34:18;;;;;;;3.63;1.53;;;12.80;99.00;;;;;;5112942;27;20675;-80
2024/04/05 04:36:44;;;;;;;2.17;1.30;;;12.80;99.00;;;;;;5117429;27;20202;-80
2024/04/05 04:39:11;;;;;;;5.83;2.37;;;12.90;99.00;;;;;;5109990;27;20624;-80
2024/04/05 04:41:37;;;;;;;2.70;1.87;;;12.90;99.00;;;;;;5109606;27;20203;-80
2024/04/05 04:44:04;;;;;;;3.20;1.67;;;12.90;99.00;;;;;;5110469;27;20621;-81
2024/04/05 04:46:32;;;;;;;2.97;2.10;;;12.90;99.00;;;;;;5111105;27;20644;-81
2024/04/05 04:48:58;;;;;;;2.57;1.67;;;12.80;99.00;;;;;;5112441;27;20616;-81
2024/04/05 04:51:26;;;;;;;6.00;1.73;;;12.80;99.00;;;;;;5111595;27;20627;-80
2024/04/05 04:53:55;;;;;;;2.90;2.37;;;12.80;99.00;;;;;;5119741;27;20676;-80
2024/04/05 04:56:20;;;;;;;2.70;2.50;;;12.80;99.00;;;;;;5119266;27;20637;-81
2024/04/05 04:58:49;;;;;;;5.70;2.13;;;12.80;99.00;;;;;;5110987;27;20667;-80
2024/04/05 05:01:15;;;;;;;3.17;2.70;;;12.70;99.00;;;;;;5110412;27;20213;-80
2024/04/05 05:03:42;;;;;;;4.50;2.00;;;12.70;99.00;;;;;;5110473;27;20630;-80
2024/04/05 05:06:08;;;;;;;3.23;2.57;;;12.60;99.00;;;;;;5113301;27;20682;-80
2024/04/05 05:08:36;;;;;;;2.30;1.90;;;12.60;99.00;;;;;;5114083;27;20627;-81
2024/04/05 05:11:02;;;;;;;5.07;1.70;;;12.50;99.00;;;;;;5115069;27;20588;-80
2024/04/05 05:13:29;;;;;;;2.50;1.93;;;12.50;99.00;;;;;;5117471;27;20730;-80
2024/04/05 05:15:54;;;;;;;3.17;2.17;;;12.50;99.00;;;;;;5107986;27;20632;-80
2024/04/05 05:18:21;;;;;;;4.70;2.97;;;12.60;99.00;;;;;;5113588;27;20634;-81
2024/04/05 05:20:48;;;;;;;4.03;2.40;;;12.60;99.00;;;;;;5120724;27;20222;-81
2024/04/05 05:23:15;;;;;;;2.47;2.10;;;12.50;99.00;;;;;;5120120;27;20663;-81
2024/04/05 05:25:44;;;;;;;4.20;1.90;;;12.50;99.00;;;;;;5113957;27;20628;-81
2024/04/05 05:28:11;;;;;;;2.57;2.23;;;12.50;99.00;;;;;;5118882;27;20651;-81
2024/04/05 05:30:37;;;;;;;3.53;2.50;;;12.50;99.00;;;;;;5108983;27;20627;-81
2024/04/05 05:33:04;;;;;;;3.20;2.17;;;12.50;99.00;;;;;;5113409;27;20618;-83
2024/04/05 05:35:30;;;;;;;2.80;2.17;;;12.40;99.00;;;;;;5119659;27;20694;-81
2024/04/05 05:37:57;;;;;;;4.70;3.43;;;12.30;99.00;;;;;;5122014;27;20616;-81
2024/04/05 05:40:23;;;;;;;4.80;2.10;;;12.30;99.00;;;;;;5108266;27;20609;-81
2024/04/05 05:42:52;;;;;;;2.33;2.10;;;12.10;99.00;;;;;;5123244;27;20644;-81
2024/04/05 05:45:18;;;;;;;2.43;2.10;;;12.00;99.00;;;;;;5107733;27;20198;-81
2024/04/05 05:47:45;;;;;;;7.37;3.00;;;12.00;99.00;;;;;;5116038;27;20728;-81
2024/04/05 05:50:11;;;;;;;4.03;2.63;;;12.10;99.00;;;;;;5114826;27;20628;-81
2024/04/05 05:52:38;;;;;;;4.20;2.20;;;12.10;99.00;;;;;;5114269;27;20669;-81
2024/04/05 05:55:04;;;;;;;4.23;2.13;;;12.20;99.00;;;;;;5112539;27;21523;-81
2024/04/05 05:57:31;;;;;;;7.53;2.70;;;12.20;99.00;;;;;;5115975;27;20672;-81
2024/04/05 05:59:58;;;;;;;4.83;2.53;;;12.20;99.00;;;;;;5117556;27;20656;-81
2024/04/05 06:02:26;;;;;;;3.80;2.27;;;12.20;99.00;;;;;;5123295;27;21237;-80
2024/04/05 06:04:52;;;;;;;2.73;2.33;;;12.20;99.00;;;;;;5124813;27;20637;-80
2024/04/05 06:07:18;;;;;;;3.73;2.37;;;12.10;99.00;;;;;;5124902;27;20662;-81
2024/04/05 06:09:49;;;;;;;4.80;2.53;;;12.10;99.00;;;;;;5114218;27;20646;-80
2024/04/05 06:12:16;;;;;;;3.90;2.90;;;12.20;99.00;;;;;;5119532;27;20616;-80
2024/04/05 06:14:42;;;;;;;4.13;3.07;;;12.20;99.00;;;;;;5119267;27;20675;-81
2024/04/05 06:17:11;;;;;;;4.50;2.80;;;12.20;99.00;;;;;;5113984;27;20610;-80
2024/04/05 06:19:38;;;;;;;7.73;3.37;;;12.20;99.00;;;;;;5116285;27;20640;-79
2024/04/05 06:22:05;;;;;;;3.83;3.53;;;12.30;99.00;;;;;;5112577;27;20628;-79
2024/04/05 06:24:31;;;;;;;5.47;3.50;;;12.40;99.00;;;;;;5113088;27;20648;-79
2024/04/05 06:26:58;;;;;;;4.80;3.93;;;12.40;99.00;;;;;;5114443;27;20675;-79
2024/04/05 06:29:23;;;;;;;3.43;3.13;;;12.50;99.00;;;;;;5116082;27;20613;-79
2024/04/05 06:31:50;;;;;;;5.63;3.90;;;12.50;99.00;;;;;;5112879;27;20616;-79
2024/04/05 06:34:17;;;;;;;7.47;6.67;;;12.60;99.00;;;;;;5113670;27;20223;-78
2024/04/05 06:36:44;;;;;;;5.80;4.80;;;12.60;99.00;;;;;;5120108;27;20630;-78
2024/04/05 06:39:10;;;;;;;4.97;3.57;;;12.70;99.00;;;;;;5110777;27;20624;-77
2024/04/05 06:41:36;;;;;;;3.63;2.87;;;12.70;99.00;;;;;;5120872;27;20746;-77
2024/04/05 06:44:02;;;;;;;5.13;3.27;;;12.80;99.00;;;;;;5106255;27;20202;-76
2024/04/05 06:46:29;;;;;;;8.60;3.40;;;12.90;99.00;;;;;;5110513;27;20620;-76
2024/04/05 06:48:55;;;;;;;5.83;3.00;;;13.00;99.00;;;;;;5118997;27;20206;-76
2024/04/05 06:51:23;;;;;;;4.50;3.00;;;13.00;99.00;;;;;;5116478;27;20632;-76
2024/04/05 06:53:49;;;;;;;4.10;2.30;;;13.00;99.00;;;;;;5114787;27;20694;-76
2024/04/05 06:56:15;;;;;;;5.87;2.70;;;13.10;99.00;;;;;;5119668;27;20624;-78
2024/04/05 06:58:41;;;;;;;4.40;2.60;;;13.10;99.00;;;;;;5105734;27;20233;-77
2024/04/05 07:01:08;;;;;;;2.93;2.20;;;13.10;99.00;;;;;;5112383;27;20624;-77
2024/04/05 07:03:33;;;;;;;11.43;2.80;;;13.10;99.00;;;;;;5116552;27;20219;-77
2024/04/05 07:06:02;;;;;;;6.60;3.63;;;13.20;99.00;;;;;;5122000;27;21196;-77
2024/04/05 07:08:30;;;;;;;4.13;3.27;;;13.20;99.00;;;;;;5106121;27;20210;-77
2024/04/05 07:10:57;;;;;;;4.73;4.10;;;13.20;99.00;;;;;;5113058;27;21606;-77
2024/04/05 07:13:24;;;;;;;6.13;3.50;;;13.30;99.00;;;;;;5118255;27;20622;-78
2024/04/05 07:15:50;;;;;;;6.70;3.57;;;13.30;99.00;;;;;;5120974;27;20630;-78
2024/04/05 07:18:18;;;;;;;4.53;2.50;;;13.30;99.00;;;;;;5123165;27;20617;-78
2024/04/05 07:20:45;;;;;;;3.97;3.00;;;13.40;99.00;;;;;;5117842;27;20636;-78
2024/04/05 07:23:12;;;;;;;4.57;3.40;;;13.40;99.00;;;;;;5122095;27;20618;-79
2024/04/05 07:25:40;;;;;;;4.97;2.77;;;13.50;99.00;;;;;;5114390;27;20648;-78
2024/04/05 07:28:06;;;;;;;4.40;2.80;;;13.50;99.00;;;;;;5111747;27;20636;-79
2024/04/05 07:30:35;;;;;;;7.60;2.50;;;13.60;99.00;;;;;;5107298;27;20625;-79
2024/04/05 07:33:01;;;;;;;4.33;2.60;;;13.60;99.00;;;;;;5114826;27;20733;-79
2024/04/05 07:35:28;;;;;;;3.30;2.10;;;13.70;99.00;;;;;;5117750;27;20697;-79
2024/04/05 07:37:55;;;;;;;2.50;2.03;;;13.70;99.00;;;;;;5120578;27;20635;-78
2024/04/05 07:40:23;;;;;;;3.07;1.93;;;13.70;99.00;;;;;;5118289;27;20983;-77
2024/04/05 07:42:51;;;;;;;4.03;2.00;;;13.80;99.00;;;;;;5123958;27;20630;-77
2024/04/05 07:45:19;;;;;;;2.90;1.97;;;13.90;99.00;;;;;;5122809;27;20628;-77
2024/04/05 07:47:47;;;;;;;3.20;2.40;;;13.90;99.00;;;;;;5102457;27;20637;-77
2024/04/05 07:50:14;;;;;;;4.07;1.80;;;13.90;99.00;;;;;;5116783;27;20620;-78
2024/04/05 07:52:40;;;;;;;2.80;2.00;;;14.00;99.00;;;;;;5118062;27;20630;-77
2024/04/05 07:55:08;;;;;;;3.23;1.70;;;14.00;99.00;;;;;;5117547;27;20675;-77
2024/04/05 07:57:33;;;;;;;4.00;2.33;;;14.10;99.00;;;;;;5117040;27;20656;-75
2024/04/05 08:00:02;;;;;;;3.00;2.37;;;14.10;99.00;;;;;;5123033;27;20807;-78
2024/04/05 08:02:29;;;;;;;4.13;2.30;;;14.20;99.00;;;;;;5123666;27;20209;-76
2024/04/05 08:04:56;;;;;;;4.37;2.37;;;14.30;99.00;;;;;;5120724;27;20635;-76
2024/04/05 08:07:23;;;;;;;4.17;1.80;;;14.30;99.00;;;;;;5119846;27;20616;-76
2024/04/05 08:09:52;;;;;;;1.87;1.73;;;14.50;99.00;;;;;;5123454;27;20737;-77
2024/04/05 08:12:18;;;;;;;2.33;1.70;;;14.50;99.00;;;;;;5111788;27;20631;-77
2024/04/05 08:14:45;;;;;;;3.93;1.80;;;14.60;99.00;;;;;;5116258;27;20660;-78
2024/04/05 08:17:12;;;;;;;3.27;2.00;;;14.70;99.00;;;;;;5111132;27;21022;-80
2024/04/05 08:19:39;;;;;;;2.03;1.60;;;14.80;99.00;;;;;;5115242;27;20634;-77
2024/04/05 08:22:06;;;;;;;5.70;1.70;;;14.80;99.00;;;;;;5113295;27;20635;-77
2024/04/05 08:24:33;;;;;;;2.03;1.80;;;14.80;99.00;;;;;;5115826;27;20637;-77
2024/04/05 08:26:59;;;;;;;5.47;1.90;;;14.90;99.00;;;;;;5117755;27;21232;-78
2024/04/05 08:29:25;;;;;;;2.03;1.93;;;14.90;99.00;;;;;;5123051;27;20618;-77
2024/04/05 08:31:52;;;;;;;4.87;2.30;;;14.90;99.00;;;;;;5108922;27;20199;-77
2024/04/05 08:34:20;;;;;;;4.97;2.00;;;15.00;99.00;;;;;;5119187;27;20696;-78
2024/04/05 08:36:48;;;;;;;2.90;2.10;;;15.20;99.00;;;;;;5117801;27;20637;-78
2024/04/05 08:39:17;;;;;;;3.83;2.10;;;15.20;99.00;;;;;;5113690;27;20662;-78
2024/04/05 08:41:44;;;;;;;5.53;1.40;;;15.30;99.00;;;;;;5110118;27;20632;-78
2024/04/05 08:44:12;;;;;;;4.83;2.17;;;15.40;99.00;;;;;;5112016;27;20620;-78
2024/04/05 08:46:39;;;;;;;3.50;1.87;;;15.60;99.00;;;;;;5113485;27;20620;-78
2024/04/05 08:49:06;;;;;;;3.00;1.77;;;15.70;99.00;;;;;;5112886;27;20684;-79
2024/04/05 08:51:33;;;;;;;2.47;1.73;;;15.80;99.00;;;;;;5117934;27;20634;-75
2024/04/05 08:54:00;;;;;;;5.00;2.00;;;15.80;99.00;;;;;;5120155;27;20683;-78
2024/04/05 08:56:29;;;;;;;3.57;1.80;;;16.00;99.00;;;;;;5121844;27;20632;-76
2024/04/05 08:58:55;;;;;;;3.07;1.93;;;16.00;99.00;;;;;;5106246;27;20675;-78
2024/04/05 09:01:21;;;;;;;6.03;1.83;;;16.10;99.00;;;;;;5119672;27;20628;-77
2024/04/05 09:03:49;;;;;;;3.20;1.80;;;16.10;98.00;;;;;;5117453;27;20958;-78
2024/04/05 09:06:15;;;;;;;6.40;1.43;;;16.20;99.00;;;;;;5109930;27;20624;-77
2024/04/05 09:08:48;;;;;;;1.60;1.40;;;16.20;98.50;;;;;;5109945;27;20642;-78
2024/04/05 09:11:19;;;;;;;1.60;1.47;;;16.30;98.40;;;;;;5112135;27;20239;-79
2024/04/05 09:13:58;;;;;;;1.47;1.20;;;16.30;97.20;;;;;;5111132;27;20608;-77
2024/04/05 09:16:25;;;;;;;6.00;1.47;;;16.50;95.90;;;;;;5102341;27;20632;-77
2024/04/05 09:18:52;;;;;;;3.23;1.20;;;16.60;94.80;;;;;;5111510;27;20669;-77
2024/04/05 09:21:18;;;;;;;2.40;1.10;;;16.80;91.50;;;;;;5117216;27;21073;-77
2024/04/05 09:23:50;;;;;;;1.43;1.20;;;16.90;91.80;;;;;;5118133;27;20656;-77
2024/04/05 09:26:19;;;;;;;2.03;1.10;;;17.00;91.40;;;;;;5111302;27;20624;-78
2024/04/05 09:28:57;;;;;;;1.60;1.17;;;17.10;91.60;;;;;;5113824;27;20626;-78
2024/04/05 09:31:23;;;;;;;1.60;1.27;;;17.20;90.90;;;;;;5111151;27;20625;-77
2024/04/05 09:33:51;;;;;;;2.60;0.80;;;17.40;91.60;;;;;;5111218;27;20618;-78
2024/04/05 09:36:23;;;;;;;2.27;1.20;;;17.60;88.50;;;;;;5112256;27;21749;-77
2024/04/05 09:38:51;;;;;;;1.67;1.00;;;17.60;87.40;;;;;;5109786;27;20631;-77
2024/04/05 09:41:18;;;;;;;3.00;0.93;;;17.70;85.60;;;;;;5117393;27;20634;-76
2024/04/05 09:43:46;;;;;;;1.87;1.67;;;17.70;86.10;;;;;;5121535;27;21178;-77
2024/04/05 09:46:14;;;;;;;1.43;1.00;;;17.60;87.40;;;;;;5118061;27;20620;-77
2024/04/05 09:48:41;;;;;;;0.90;0.73;;;17.80;84.50;;;;;;5101003;27;20639;-76
2024/04/05 09:51:16;;;;;;;3.20;1.20;;;17.80;85.70;;;;;;5115405;27;20609;-76
2024/04/05 09:53:46;;;;;;;3.37;1.57;;;17.80;85.80;;;;;;5118546;27;21204;-76
2024/04/05 09:56:18;;;;;;;2.10;1.10;;;17.80;85.00;;;;;;5122124;27;20680;-77
2024/04/05 09:58:47;;;;;;;4.87;1.13;;;17.80;85.40;;;;;;5123499;27;20706;-76
2024/04/05 10:01:14;;;;;;;4.20;1.47;;;17.90;84.60;;;;;;5115020;27;21088;-76
2024/04/05 10:03:41;;;;;;;1.80;1.40;;;18.00;84.20;;;;;;5125822;27;20615;-76
2024/04/05 10:06:15;;;;;;;1.40;1.13;;;18.10;84.80;;;;;;5117202;27;20725;-76
2024/04/05 10:08:42;;;;;;;1.67;1.20;;;18.10;83.60;;;;;;5109337;27;21209;-76
2024/04/05 10:11:13;;;;;;;1.03;0.83;;;18.10;82.70;;;;;;5114261;27;20623;-77
2024/04/05 10:13:40;;;;;;;0.73;0.70;;;18.10;81.70;;;;;;5114429;27;20682;-77
2024/04/05 10:16:08;;;;;;;6.23;1.20;;;18.20;83.20;;;;;;5111981;27;21277;-77
2024/04/05 10:18:37;;;;;;;1.00;0.90;;;18.20;83.10;;;;;;5119884;27;20619;-76
2024/04/05 10:21:04;;;;;;;2.13;0.80;;;18.20;82.80;;;;;;5113901;27;21074;-77
2024/04/05 10:23:33;;;;;;;3.80;1.33;;;18.20;82.10;;;;;;5104371;27;20640;-76
2024/04/05 10:25:58;;;;;;;1.03;0.80;;;18.30;82.10;;;;;;5115330;27;20628;-77
2024/04/05 10:28:28;;;;;;;1.73;1.17;;;18.40;80.70;;;;;;5122539;27;20621;-76
2024/04/05 10:30:55;;;;;;;2.10;1.10;;;18.40;81.30;;;;;;5123363;27;21215;-76
2024/04/05 10:33:23;;;;;;;2.37;1.10;;;18.50;82.50;;;;;;5121681;27;20608;-76
2024/04/05 10:35:49;;;;;;;2.00;1.00;;;18.60;80.90;;;;;;5119771;27;21030;-77
2024/04/05 10:38:17;;;;;;;2.60;1.00;;;18.60;80.30;;;;;;5116836;27;21088;-76
2024/04/05 10:40:43;;;;;;;1.27;0.80;;;18.60;80.50;;;;;;5106704;27;20975;-77
2024/04/05 10:43:11;;;;;;;3.30;1.13;;;18.70;78.40;;;;;;5113156;27;22017;-78
2024/04/05 10:45:39;;;;;;;1.53;0.90;;;18.80;79.00;;;;;;5114085;27;20832;-77
2024/04/05 10:48:06;;;;;;;1.90;0.80;;;18.80;78.10;;;;;;5115703;27;20715;-77
2024/04/05 10:50:37;;;;;;;1.00;0.80;;;18.80;79.30;;;;;;5112316;27;20656;-77
2024/04/05 10:53:05;;;;;;;1.40;0.80;;;18.80;79.90;;;;;;5109905;27;20616;-77
2024/04/05 10:55:31;;;;;;;0.97;0.80;;;18.80;78.60;;;;;;5118799;27;20958;-77
2024/04/05 10:58:01;;;;;;;1.63;0.70;;;18.80;77.80;;;;;;5113666;27;21250;-78
2024/04/05 11:00:27;;;;;;;1.57;0.87;;;19.00;77.00;;;;;;5106524;27;21215;-78
2024/04/05 11:02:55;;;;;;;1.60;0.90;;;19.20;79.20;;;;;;5112231;27;20625;-78
2024/04/05 11:05:21;;;;;;;3.23;1.67;;;19.30;79.20;;;;;;5115172;27;20638;-78
2024/04/05 11:07:58;;;;;;;3.47;0.90;;;19.40;79.00;;;;;;5119357;27;21326;-77
2024/04/05 11:10:28;;;;;;;1.77;0.80;;;19.60;77.40;;;;;;5122073;27;20372;-77
2024/04/05 11:12:54;;;;;;;3.30;1.20;;;19.60;76.00;;;;;;5114573;27;21245;-78
2024/04/05 11:15:21;;;;;;;1.03;0.77;;;19.60;75.10;;;;;;5113775;27;20661;-77
2024/04/05 11:18:00;;;;;;;4.03;1.10;;;19.70;75.60;;;;;;5118186;27;22148;-77
2024/04/05 11:20:29;;;;;;;2.60;0.90;;;19.80;75.40;;;;;;5114935;27;20628;-78
2024/04/05 11:22:56;;;;;;;1.60;1.30;;;19.80;76.50;;;;;;5111642;27;20632;-79
2024/04/05 11:25:22;;;;;;;1.90;1.20;;;20.00;75.60;;;;;;5116537;27;20650;-78
2024/04/05 11:27:49;;;;;;;1.07;0.87;;;20.00;75.60;;;;;;5115716;27;21445;-77
2024/04/05 11:30:15;;;;;;;1.07;0.77;;;20.20;76.80;;;;;;5109936;27;20203;-77
2024/04/05 11:32:42;;;;;;;1.33;1.00;;;20.40;76.80;;;;;;5114912;27;20635;-78
2024/04/05 11:35:12;;;;;;;2.03;1.93;;;20.50;74.80;;;;;;5120849;27;20227;-78
2024/04/05 11:37:39;;;;;;;0.87;0.67;;;20.60;75.00;;;;;;5110944;27;20633;-77
2024/04/05 11:40:06;;;;;;;1.83;0.90;;;20.80;74.40;;;;;;5111003;27;20628;-78
2024/04/05 11:42:32;;;;;;;1.83;0.90;;;20.90;74.30;;;;;;5111024;27;20720;-78
2024/04/05 11:44:58;;;;;;;1.37;1.00;;;21.10;72.50;;;;;;5115207;27;20648;-77
2024/04/05 11:47:25;;;;;;;0.97;0.73;;;21.30;73.10;;;;;;5111387;27;20636;-77
2024/04/05 11:49:52;;;;;;;2.23;1.03;;;21.30;72.50;;;;;;5113955;27;20313;-77
2024/04/05 11:52:21;;;;;;;0.90;0.80;;;21.30;72.50;;;;;;5122672;27;20627;-78
2024/04/05 11:54:46;;;;;;;2.50;0.90;;;21.20;72.60;;;;;;5124059;27;20699;-77
2024/04/05 11:57:14;;;;;;;1.70;0.83;;;21.20;72.30;;;;;;5118125;27;20660;-78
2024/04/05 11:59:40;;;;;;;2.23;1.17;;;21.10;71.40;;;;;;5115323;27;20247;-78
2024/04/05 12:02:07;;;;;;;1.30;0.90;;;21.00;72.90;;;;;;5112025;27;20627;-77
2024/04/05 12:04:33;;;;;;;2.50;1.17;;;20.90;72.80;;;;;;5111756;27;20626;-78
2024/04/05 12:07:00;;;;;;;1.40;0.90;;;21.00;72.50;;;;;;5111451;27;20632;-77
2024/04/05 12:09:27;;;;;;;1.20;1.03;;;20.90;73.20;;;;;;5113967;27;20361;-77
2024/04/05 12:11:53;;;;;;;1.20;0.83;;;20.90;73.00;;;;;;5115638;27;20634;-77
2024/04/05 12:14:20;;;;;;;2.80;1.20;;;20.90;73.00;;;;;;5117399;27;20644;-77
2024/04/05 12:16:46;;;;;;;1.93;1.07;;;20.90;73.10;;;;;;5114120;27;21164;-77
2024/04/05 12:19:12;;;;;;;1.80;0.93;;;20.80;73.40;;;;;;5119874;27;20628;-78
2024/04/05 12:21:40;;;;;;;0.97;0.83;;;20.80;73.50;;;;;;5120028;27;20620;-79
2024/04/05 12:24:06;;;;;;;1.80;1.00;;;20.90;71.80;;;;;;5117723;27;20234;-78
2024/04/05 12:26:35;;;;;;;3.07;1.10;;;21.00;73.30;;;;;;5115619;27;21184;-78
2024/04/05 12:29:02;;;;;;;3.43;1.30;;;21.10;74.10;;;;;;5111754;27;20660;-78
2024/04/05 12:31:28;;;;;;;1.10;1.00;;;21.10;73.10;;;;;;5114366;27;20638;-78
2024/04/05 12:33:54;;;;;;;1.43;1.00;;;21.10;73.00;;;;;;5113954;27;20596;-78
2024/04/05 12:36:21;;;;;;;1.47;1.00;;;21.20;71.90;;;;;;5110229;27;20660;-79
2024/04/05 12:38:47;;;;;;;1.47;1.00;;;21.20;72.10;;;;;;5111978;27;20209;-80
2024/04/05 12:41:17;;;;;;;2.53;1.00;;;21.20;71.90;;;;;;5117661;27;20622;-78
2024/04/05 12:43:44;;;;;;;1.20;1.10;;;21.20;71.70;;;;;;5100134;27;20632;-78
2024/04/05 12:46:11;;;;;;;1.10;1.00;;;21.30;70.20;;;;;;5116386;27;20641;-81